Aérodrome :
LOGIN :

S'inscrire | Disclaimer

   EN    FR    IT 

 










Légende :    VFR   VFR Marginal   IFR   IFR Intensif   IFR Très Intensif
Visi : 
Plafond : 
>= 8 km
>= 3000ft
5 à 8 km
1000 à 3000 ft
1500m à 5 km
500 à 1000 ft
800 à 1500m
200 à 500 ft
< 800m
< 200 ft
Symboles :   Orages  Brouillard  Fortes neiges  Fortes précipitations  Vent > 20 kt
SIGMETs :   Divers  Orages  Givrage  Turbulence  Onde Orograph.  Cendres Volcan.






- Altitude de l'aérodrome : 2625 ft
- Code IATA : LEU


LESU - Aeròdrom dels Pirineus-Alt Urgell

DERNIER METAR :
  • 191130Z VRB03KT 9999 FEW030 SCT065 20/14 Q1017

METARs EXPIRÉS :
  • 191100Z VRB02KT 9999 FEW030 SCT067 20/14 Q1017
  • 191030Z VRB02KT 9999 FEW015 SCT045 18/14 Q1018
  • 191000Z 12003KT 070V180 9999 FEW015 SCT042 16/15 Q1018
  • 190930Z VRB02KT 9999 FEW015 SCT045 BKN053 16/15 Q1018
  • 190900Z VRB02KT 9999 VCSH FEW005 BKN053 BKN077 15/14 Q1018

TAF TAF LESU
Valide du 19 à 09h jusqu'au 20 à 09h UTC


190800Z 1909/2009 VRB03KT 9999 FEW010 BKN020 TX24/1914Z TN09/2005Z
TEMPO 1911/1916 VRB05G15KT 3000 TSRA FEW025CB BKN040



MET'MAP, la Météo Aéronautique d'un coup d'oeil ! - Copyright ORBIFLY Décembre 2007 - Disclaimer

ORBIFLY MET'MAP TEAM :

Programmation & Développement : Alexandra Zaïnal
Sur une idée originale de : Baudouin d'Aumeries
Assistance à la programmation : Marc-Olivier Méhu
Soutien technique & logistique : Manuel Goepfert

Contact : metmap@orbifly.com




SOURCES & CREDITS :

   NOAA